Milligan, Nebraska
Current Conditions -  °F | °C
As of 12:15 PM on Friday 28 Nov 2014 (Local Time) from KHJH Reporting Station
Clear Clear  
Wind Chill: 56°   Ceiling: Unl
Heat Index: 56°   Visibility: 10mi
Dew Point: 26°   Wind: 8mph
Humidity: 32%   Direction: 210°SSW
Pressure: 29.78"   Gusts: NA
Location:  40.5°N, 97.39°W
Report Text: KHJH 281815Z AUTO 21007KT 10SM CLR 13/M03 A2978 RMK AO2 T01321032
Loading
Personal Weather Stations






























Interactive Weather Map New forecast layout! Learn more

10-Day Weather Forecast

Advertisements
Track Severe Weather on mobile